sensor_id;sensor_type;location;lat;lon;timestamp;P1;durP1;ratioP1;P2;durP2;ratioP2
18507;SDS011;9383;50.928;12.116;2023-04-21T00:01:14;18.88;;;16.95;;
18507;SDS011;9383;50.928;12.116;2023-04-21T00:03:43;18.13;;;16.33;;
18507;SDS011;9383;50.928;12.116;2023-04-21T00:06:11;18.02;;;16.35;;
18507;SDS011;9383;50.928;12.116;2023-04-21T00:08:38;17.83;;;16.13;;
18507;SDS011;9383;50.928;12.116;2023-04-21T00:11:06;17.88;;;16.27;;
18507;SDS011;9383;50.928;12.116;2023-04-21T00:13:34;19.50;;;17.45;;
18507;SDS011;9383;50.928;12.116;2023-04-21T00:16:02;18.13;;;16.15;;
18507;SDS011;9383;50.928;12.116;2023-04-21T00:18:29;18.65;;;16.50;;
18507;SDS011;9383;50.928;12.116;2023-04-21T00:20:56;17.88;;;16.05;;
18507;SDS011;9383;50.928;12.116;2023-04-21T00:23:24;18.05;;;16.25;;
18507;SDS011;9383;50.928;12.116;2023-04-21T00:25:51;18.27;;;16.45;;
18507;SDS011;9383;50.928;12.116;2023-04-21T00:28:18;18.20;;;15.35;;
18507;SDS011;9383;50.928;12.116;2023-04-21T00:30:45;16.13;;;14.25;;
18507;SDS011;9383;50.928;12.116;2023-04-21T00:33:11;17.50;;;15.70;;
18507;SDS011;9383;50.928;12.116;2023-04-21T00:35:38;17.00;;;15.32;;
18507;SDS011;9383;50.928;12.116;2023-04-21T00:38:06;17.05;;;14.77;;
18507;SDS011;9383;50.928;12.116;2023-04-21T00:40:32;16.23;;;14.63;;
18507;SDS011;9383;50.928;12.116;2023-04-21T00:42:58;15.88;;;14.48;;
18507;SDS011;9383;50.928;12.116;2023-04-21T00:45:25;16.90;;;15.20;;
18507;SDS011;9383;50.928;12.116;2023-04-21T00:47:52;16.45;;;14.60;;
18507;SDS011;9383;50.928;12.116;2023-04-21T00:50:18;16.15;;;14.45;;
18507;SDS011;9383;50.928;12.116;2023-04-21T00:52:45;15.93;;;14.43;;
18507;SDS011;9383;50.928;12.116;2023-04-21T00:55:13;15.02;;;13.63;;
18507;SDS011;9383;50.928;12.116;2023-04-21T00:57:40;15.43;;;13.93;;
18507;SDS011;9383;50.928;12.116;2023-04-21T01:00:07;15.45;;;13.93;;
18507;SDS011;9383;50.928;12.116;2023-04-21T01:02:35;15.18;;;13.70;;
18507;SDS011;9383;50.928;12.116;2023-04-21T01:05:06;15.40;;;13.80;;
18507;SDS011;9383;50.928;12.116;2023-04-21T01:07:34;16.00;;;14.43;;
18507;SDS011;9383;50.928;12.116;2023-04-21T01:10:01;15.40;;;14.00;;
18507;SDS011;9383;50.928;12.116;2023-04-21T01:12:29;14.90;;;13.50;;
18507;SDS011;9383;50.928;12.116;2023-04-21T01:14:56;14.57;;;13.18;;
18507;SDS011;9383;50.928;12.116;2023-04-21T01:17:22;14.25;;;12.95;;
18507;SDS011;9383;50.928;12.116;2023-04-21T01:19:49;14.60;;;13.15;;
18507;SDS011;9383;50.928;12.116;2023-04-21T01:22:20;14.73;;;13.35;;
18507;SDS011;9383;50.928;12.116;2023-04-21T01:24:48;14.23;;;12.82;;
18507;SDS011;9383;50.928;12.116;2023-04-21T01:27:16;14.15;;;12.75;;
18507;SDS011;9383;50.928;12.116;2023-04-21T01:29:45;14.98;;;13.57;;
18507;SDS011;9383;50.928;12.116;2023-04-21T01:32:14;14.60;;;13.18;;
18507;SDS011;9383;50.928;12.116;2023-04-21T01:34:42;14.18;;;12.80;;
18507;SDS011;9383;50.928;12.116;2023-04-21T01:37:10;14.23;;;12.82;;
18507;SDS011;9383;50.928;12.116;2023-04-21T01:39:39;14.57;;;13.27;;
18507;SDS011;9383;50.928;12.116;2023-04-21T01:42:07;14.43;;;12.85;;
18507;SDS011;9383;50.928;12.116;2023-04-21T01:44:35;14.02;;;12.63;;
18507;SDS011;9383;50.928;12.116;2023-04-21T01:47:02;14.88;;;12.77;;
18507;SDS011;9383;50.928;12.116;2023-04-21T01:49:31;14.32;;;12.93;;
18507;SDS011;9383;50.928;12.116;2023-04-21T01:51:58;14.70;;;13.23;;
18507;SDS011;9383;50.928;12.116;2023-04-21T01:54:26;14.50;;;13.00;;
18507;SDS011;9383;50.928;12.116;2023-04-21T01:56:53;14.48;;;12.98;;
18507;SDS011;9383;50.928;12.116;2023-04-21T01:59:19;14.25;;;12.82;;
18507;SDS011;9383;50.928;12.116;2023-04-21T02:01:46;14.45;;;13.07;;
18507;SDS011;9383;50.928;12.116;2023-04-21T02:04:13;13.85;;;12.45;;
18507;SDS011;9383;50.928;12.116;2023-04-21T02:06:40;14.20;;;12.90;;
18507;SDS011;9383;50.928;12.116;2023-04-21T02:09:07;14.50;;;13.10;;
18507;SDS011;9383;50.928;12.116;2023-04-21T02:11:34;16.42;;;13.77;;
18507;SDS011;9383;50.928;12.116;2023-04-21T02:14:01;13.98;;;12.27;;
18507;SDS011;9383;50.928;12.116;2023-04-21T02:16:29;13.73;;;12.35;;
18507;SDS011;9383;50.928;12.116;2023-04-21T02:18:56;14.07;;;12.75;;
18507;SDS011;9383;50.928;12.116;2023-04-21T02:21:24;14.35;;;12.93;;
18507;SDS011;9383;50.928;12.116;2023-04-21T02:23:52;16.23;;;14.63;;
18507;SDS011;9383;50.928;12.116;2023-04-21T02:26:19;14.98;;;13.45;;
18507;SDS011;9383;50.928;12.116;2023-04-21T02:28:47;15.10;;;13.70;;
18507;SDS011;9383;50.928;12.116;2023-04-21T02:31:15;16.15;;;14.52;;
18507;SDS011;9383;50.928;12.116;2023-04-21T02:33:42;14.85;;;13.40;;
18507;SDS011;9383;50.928;12.116;2023-04-21T02:36:09;14.77;;;13.23;;
18507;SDS011;9383;50.928;12.116;2023-04-21T02:38:37;15.85;;;14.25;;
18507;SDS011;9383;50.928;12.116;2023-04-21T02:41:04;14.70;;;13.20;;
18507;SDS011;9383;50.928;12.116;2023-04-21T02:43:33;14.40;;;13.00;;
18507;SDS011;9383;50.928;12.116;2023-04-21T02:46:04;14.20;;;12.73;;
18507;SDS011;9383;50.928;12.116;2023-04-21T02:48:36;13.70;;;12.27;;
18507;SDS011;9383;50.928;12.116;2023-04-21T02:51:03;14.15;;;12.75;;
18507;SDS011;9383;50.928;12.116;2023-04-21T02:53:30;14.52;;;13.02;;
18507;SDS011;9383;50.928;12.116;2023-04-21T02:55:59;14.90;;;12.90;;
18507;SDS011;9383;50.928;12.116;2023-04-21T02:58:48;15.80;;;13.95;;
18507;SDS011;9383;50.928;12.116;2023-04-21T03:01:15;14.38;;;12.88;;
18507;SDS011;9383;50.928;12.116;2023-04-21T03:03:41;13.95;;;12.60;;
18507;SDS011;9383;50.928;12.116;2023-04-21T03:06:08;14.07;;;12.68;;
18507;SDS011;9383;50.928;12.116;2023-04-21T03:08:35;14.68;;;12.95;;
18507;SDS011;9383;50.928;12.116;2023-04-21T03:11:02;14.65;;;12.95;;
18507;SDS011;9383;50.928;12.116;2023-04-21T03:13:28;15.68;;;12.60;;
18507;SDS011;9383;50.928;12.116;2023-04-21T03:15:55;15.15;;;13.65;;
18507;SDS011;9383;50.928;12.116;2023-04-21T03:18:22;14.43;;;12.65;;
18507;SDS011;9383;50.928;12.116;2023-04-21T03:20:48;15.32;;;13.40;;
18507;SDS011;9383;50.928;12.116;2023-04-21T03:23:16;14.43;;;12.93;;
18507;SDS011;9383;50.928;12.116;2023-04-21T03:25:43;14.15;;;12.32;;
18507;SDS011;9383;50.928;12.116;2023-04-21T03:28:09;13.50;;;12.25;;
18507;SDS011;9383;50.928;12.116;2023-04-21T03:30:39;14.02;;;12.40;;
18507;SDS011;9383;50.928;12.116;2023-04-21T03:33:05;14.70;;;11.93;;
18507;SDS011;9383;50.928;12.116;2023-04-21T03:35:32;14.85;;;12.18;;
18507;SDS011;9383;50.928;12.116;2023-04-21T03:37:59;13.02;;;11.75;;
18507;SDS011;9383;50.928;12.116;2023-04-21T03:40:34;14.00;;;12.07;;
18507;SDS011;9383;50.928;12.116;2023-04-21T03:43:01;13.63;;;12.07;;
18507;SDS011;9383;50.928;12.116;2023-04-21T03:45:28;14.05;;;11.82;;
18507;SDS011;9383;50.928;12.116;2023-04-21T03:47:54;12.98;;;11.75;;
18507;SDS011;9383;50.928;12.116;2023-04-21T03:50:21;14.10;;;12.25;;
18507;SDS011;9383;50.928;12.116;2023-04-21T03:52:48;14.93;;;12.32;;
18507;SDS011;9383;50.928;12.116;2023-04-21T03:55:15;14.15;;;12.65;;
18507;SDS011;9383;50.928;12.116;2023-04-21T03:57:42;15.80;;;12.65;;
18507;SDS011;9383;50.928;12.116;2023-04-21T04:00:09;12.77;;;11.57;;
18507;SDS011;9383;50.928;12.116;2023-04-21T04:02:37;13.20;;;11.85;;
18507;SDS011;9383;50.928;12.116;2023-04-21T04:05:04;12.27;;;11.07;;
18507;SDS011;9383;50.928;12.116;2023-04-21T04:07:33;12.80;;;11.10;;
18507;SDS011;9383;50.928;12.116;2023-04-21T04:10:00;15.35;;;12.50;;
18507;SDS011;9383;50.928;12.116;2023-04-21T04:12:26;16.00;;;14.30;;
18507;SDS011;9383;50.928;12.116;2023-04-21T04:14:52;15.95;;;13.30;;
18507;SDS011;9383;50.928;12.116;2023-04-21T04:17:19;13.98;;;12.57;;
18507;SDS011;9383;50.928;12.116;2023-04-21T04:19:46;13.25;;;11.90;;
18507;SDS011;9383;50.928;12.116;2023-04-21T04:22:13;12.25;;;11.02;;
18507;SDS011;9383;50.928;12.116;2023-04-21T04:24:40;15.25;;;10.70;;
18507;SDS011;9383;50.928;12.116;2023-04-21T04:27:06;12.68;;;11.48;;
18507;SDS011;9383;50.928;12.116;2023-04-21T04:29:34;14.70;;;10.68;;
18507;SDS011;9383;50.928;12.116;2023-04-21T04:32:02;12.02;;;10.93;;
18507;SDS011;9383;50.928;12.116;2023-04-21T04:34:30;13.13;;;11.75;;
18507;SDS011;9383;50.928;12.116;2023-04-21T04:36:57;12.23;;;11.02;;
18507;SDS011;9383;50.928;12.116;2023-04-21T04:39:27;12.10;;;10.85;;
18507;SDS011;9383;50.928;12.116;2023-04-21T04:41:57;12.48;;;11.30;;
18507;SDS011;9383;50.928;12.116;2023-04-21T04:44:25;13.20;;;11.13;;
18507;SDS011;9383;50.928;12.116;2023-04-21T04:46:53;12.63;;;10.55;;
18507;SDS011;9383;50.928;12.116;2023-04-21T04:49:20;11.48;;;10.43;;
18507;SDS011;9383;50.928;12.116;2023-04-21T04:51:49;11.85;;;10.75;;
18507;SDS011;9383;50.928;12.116;2023-04-21T04:54:17;11.00;;;9.80;;
18507;SDS011;9383;50.928;12.116;2023-04-21T04:56:44;12.05;;;10.48;;
18507;SDS011;9383;50.928;12.116;2023-04-21T04:59:11;11.38;;;10.27;;
18507;SDS011;9383;50.928;12.116;2023-04-21T05:01:37;11.82;;;10.63;;
18507;SDS011;9383;50.928;12.116;2023-04-21T05:04:06;12.85;;;11.10;;
18507;SDS011;9383;50.928;12.116;2023-04-21T05:06:33;12.82;;;11.52;;
18507;SDS011;9383;50.928;12.116;2023-04-21T05:09:01;12.90;;;11.60;;
18507;SDS011;9383;50.928;12.116;2023-04-21T05:11:29;12.98;;;10.93;;
18507;SDS011;9383;50.928;12.116;2023-04-21T05:13:56;12.00;;;10.70;;
18507;SDS011;9383;50.928;12.116;2023-04-21T05:16:23;11.93;;;10.38;;
18507;SDS011;9383;50.928;12.116;2023-04-21T05:18:50;11.63;;;10.40;;
18507;SDS011;9383;50.928;12.116;2023-04-21T05:21:22;15.43;;;10.82;;
18507;SDS011;9383;50.928;12.116;2023-04-21T05:23:53;11.30;;;9.75;;
18507;SDS011;9383;50.928;12.116;2023-04-21T05:26:21;11.63;;;9.73;;
18507;SDS011;9383;50.928;12.116;2023-04-21T05:28:52;11.57;;;10.20;;
18507;SDS011;9383;50.928;12.116;2023-04-21T05:31:20;10.88;;;9.82;;
18507;SDS011;9383;50.928;12.116;2023-04-21T05:33:48;11.57;;;10.40;;
18507;SDS011;9383;50.928;12.116;2023-04-21T05:36:15;13.82;;;10.73;;
18507;SDS011;9383;50.928;12.116;2023-04-21T05:38:43;11.63;;;10.65;;
18507;SDS011;9383;50.928;12.116;2023-04-21T05:41:10;13.50;;;11.10;;
18507;SDS011;9383;50.928;12.116;2023-04-21T05:43:37;11.88;;;10.32;;
18507;SDS011;9383;50.928;12.116;2023-04-21T05:46:07;11.50;;;10.40;;
18507;SDS011;9383;50.928;12.116;2023-04-21T05:48:35;11.02;;;9.90;;
18507;SDS011;9383;50.928;12.116;2023-04-21T05:51:12;11.52;;;10.35;;
18507;SDS011;9383;50.928;12.116;2023-04-21T05:53:40;12.25;;;9.95;;
18507;SDS011;9383;50.928;12.116;2023-04-21T05:56:08;10.75;;;9.70;;
18507;SDS011;9383;50.928;12.116;2023-04-21T05:58:36;13.75;;;9.63;;
18507;SDS011;9383;50.928;12.116;2023-04-21T06:01:03;9.85;;;8.85;;
18507;SDS011;9383;50.928;12.116;2023-04-21T06:03:31;9.90;;;8.98;;
18507;SDS011;9383;50.928;12.116;2023-04-21T06:05:58;9.43;;;8.48;;
18507;SDS011;9383;50.928;12.116;2023-04-21T06:08:26;8.38;;;7.57;;
18507;SDS011;9383;50.928;12.116;2023-04-21T06:10:54;9.23;;;8.25;;
18507;SDS011;9383;50.928;12.116;2023-04-21T06:13:22;8.38;;;7.45;;
18507;SDS011;9383;50.928;12.116;2023-04-21T06:15:48;9.25;;;8.25;;
18507;SDS011;9383;50.928;12.116;2023-04-21T06:18:15;8.88;;;7.78;;
18507;SDS011;9383;50.928;12.116;2023-04-21T06:20:48;8.00;;;7.40;;
18507;SDS011;9383;50.928;12.116;2023-04-21T06:23:16;8.82;;;7.43;;
18507;SDS011;9383;50.928;12.116;2023-04-21T06:25:43;7.95;;;7.15;;
18507;SDS011;9383;50.928;12.116;2023-04-21T06:28:11;8.57;;;7.70;;
18507;SDS011;9383;50.928;12.116;2023-04-21T06:30:37;8.60;;;7.57;;
18507;SDS011;9383;50.928;12.116;2023-04-21T06:33:05;8.65;;;7.25;;
18507;SDS011;9383;50.928;12.116;2023-04-21T06:35:32;10.73;;;8.07;;
18507;SDS011;9383;50.928;12.116;2023-04-21T06:37:58;9.35;;;8.05;;
18507;SDS011;9383;50.928;12.116;2023-04-21T06:40:25;8.23;;;7.30;;
18507;SDS011;9383;50.928;12.116;2023-04-21T06:42:52;8.65;;;7.32;;
18507;SDS011;9383;50.928;12.116;2023-04-21T06:45:19;7.85;;;6.97;;
18507;SDS011;9383;50.928;12.116;2023-04-21T06:47:46;8.25;;;7.40;;
18507;SDS011;9383;50.928;12.116;2023-04-21T06:50:12;7.10;;;6.47;;
18507;SDS011;9383;50.928;12.116;2023-04-21T06:52:39;6.60;;;5.82;;
18507;SDS011;9383;50.928;12.116;2023-04-21T06:55:06;6.90;;;6.28;;
18507;SDS011;9383;50.928;12.116;2023-04-21T06:57:32;9.57;;;6.30;;
18507;SDS011;9383;50.928;12.116;2023-04-21T06:59:59;6.72;;;6.07;;
18507;SDS011;9383;50.928;12.116;2023-04-21T07:02:26;7.85;;;6.10;;
18507;SDS011;9383;50.928;12.116;2023-04-21T07:04:53;6.55;;;5.80;;
18507;SDS011;9383;50.928;12.116;2023-04-21T07:07:19;6.55;;;5.78;;
18507;SDS011;9383;50.928;12.116;2023-04-21T07:09:46;6.65;;;6.00;;
18507;SDS011;9383;50.928;12.116;2023-04-21T07:12:13;7.82;;;6.13;;
18507;SDS011;9383;50.928;12.116;2023-04-21T07:14:39;8.35;;;6.07;;
18507;SDS011;9383;50.928;12.116;2023-04-21T07:17:06;6.00;;;5.40;;
18507;SDS011;9383;50.928;12.116;2023-04-21T07:19:33;9.93;;;5.80;;
18507;SDS011;9383;50.928;12.116;2023-04-21T07:21:59;7.40;;;5.57;;
18507;SDS011;9383;50.928;12.116;2023-04-21T07:24:26;7.55;;;5.88;;
18507;SDS011;9383;50.928;12.116;2023-04-21T07:26:52;6.78;;;5.10;;
18507;SDS011;9383;50.928;12.116;2023-04-21T07:29:20;6.68;;;5.53;;
18507;SDS011;9383;50.928;12.116;2023-04-21T07:31:47;6.45;;;5.22;;
18507;SDS011;9383;50.928;12.116;2023-04-21T07:34:15;6.45;;;5.75;;
18507;SDS011;9383;50.928;12.116;2023-04-21T07:36:42;5.60;;;5.03;;
18507;SDS011;9383;50.928;12.116;2023-04-21T07:39:08;8.98;;;5.72;;
18507;SDS011;9383;50.928;12.116;2023-04-21T07:41:35;8.13;;;5.18;;
18507;SDS011;9383;50.928;12.116;2023-04-21T07:44:01;9.45;;;5.22;;
18507;SDS011;9383;50.928;12.116;2023-04-21T07:46:28;7.63;;;5.10;;
18507;SDS011;9383;50.928;12.116;2023-04-21T07:48:56;7.97;;;5.05;;
18507;SDS011;9383;50.928;12.116;2023-04-21T07:51:24;5.22;;;4.60;;
18507;SDS011;9383;50.928;12.116;2023-04-21T07:53:52;6.25;;;4.82;;
18507;SDS011;9383;50.928;12.116;2023-04-21T07:56:18;6.68;;;5.00;;
18507;SDS011;9383;50.928;12.116;2023-04-21T07:58:45;7.40;;;4.75;;
18507;SDS011;9383;50.928;12.116;2023-04-21T08:01:12;5.38;;;4.60;;
18507;SDS011;9383;50.928;12.116;2023-04-21T08:03:42;8.23;;;4.65;;
18507;SDS011;9383;50.928;12.116;2023-04-21T08:06:08;5.88;;;4.90;;
18507;SDS011;9383;50.928;12.116;2023-04-21T08:08:36;5.07;;;4.38;;
18507;SDS011;9383;50.928;12.116;2023-04-21T08:11:02;5.60;;;4.47;;
18507;SDS011;9383;50.928;12.116;2023-04-21T08:13:28;6.22;;;4.75;;
18507;SDS011;9383;50.928;12.116;2023-04-21T08:15:56;7.47;;;4.38;;
18507;SDS011;9383;50.928;12.116;2023-04-21T08:18:22;6.75;;;5.03;;
18507;SDS011;9383;50.928;12.116;2023-04-21T08:20:49;6.20;;;4.70;;
18507;SDS011;9383;50.928;12.116;2023-04-21T08:23:16;5.65;;;4.45;;
18507;SDS011;9383;50.928;12.116;2023-04-21T08:25:44;6.18;;;3.92;;
18507;SDS011;9383;50.928;12.116;2023-04-21T08:28:11;6.20;;;4.10;;
18507;SDS011;9383;50.928;12.116;2023-04-21T08:30:38;5.30;;;4.07;;
18507;SDS011;9383;50.928;12.116;2023-04-21T08:33:05;9.68;;;3.88;;
18507;SDS011;9383;50.928;12.116;2023-04-21T08:35:34;6.88;;;4.35;;
18507;SDS011;9383;50.928;12.116;2023-04-21T08:38:01;6.30;;;4.15;;
18507;SDS011;9383;50.928;12.116;2023-04-21T08:40:32;5.43;;;4.50;;
18507;SDS011;9383;50.928;12.116;2023-04-21T08:43:01;5.32;;;4.40;;
18507;SDS011;9383;50.928;12.116;2023-04-21T08:45:31;6.05;;;4.18;;
18507;SDS011;9383;50.928;12.116;2023-04-21T08:47:59;4.18;;;3.75;;
18507;SDS011;9383;50.928;12.116;2023-04-21T08:50:27;7.40;;;4.70;;
18507;SDS011;9383;50.928;12.116;2023-04-21T08:52:55;6.45;;;4.28;;
18507;SDS011;9383;50.928;12.116;2023-04-21T08:55:28;5.47;;;4.38;;
18507;SDS011;9383;50.928;12.116;2023-04-21T08:57:56;5.63;;;4.10;;
18507;SDS011;9383;50.928;12.116;2023-04-21T09:00:23;6.32;;;3.88;;
18507;SDS011;9383;50.928;12.116;2023-04-21T09:02:56;7.00;;;4.57;;
18507;SDS011;9383;50.928;12.116;2023-04-21T09:05:25;6.35;;;3.95;;
18507;SDS011;9383;50.928;12.116;2023-04-21T09:08:05;6.15;;;4.15;;
18507;SDS011;9383;50.928;12.116;2023-04-21T09:10:42;7.57;;;3.90;;
18507;SDS011;9383;50.928;12.116;2023-04-21T09:13:15;5.40;;;4.10;;
18507;SDS011;9383;50.928;12.116;2023-04-21T09:15:44;4.85;;;3.85;;
18507;SDS011;9383;50.928;12.116;2023-04-21T09:18:16;6.32;;;3.70;;
18507;SDS011;9383;50.928;12.116;2023-04-21T09:20:46;6.57;;;4.10;;
18507;SDS011;9383;50.928;12.116;2023-04-21T09:23:14;4.90;;;3.88;;
18507;SDS011;9383;50.928;12.116;2023-04-21T09:25:41;4.50;;;3.72;;
18507;SDS011;9383;50.928;12.116;2023-04-21T09:28:11;6.50;;;4.28;;
18507;SDS011;9383;50.928;12.116;2023-04-21T09:30:39;4.90;;;4.00;;
18507;SDS011;9383;50.928;12.116;2023-04-21T09:33:08;4.80;;;3.80;;
18507;SDS011;9383;50.928;12.116;2023-04-21T09:35:42;7.53;;;3.45;;
18507;SDS011;9383;50.928;12.116;2023-04-21T09:38:10;8.32;;;3.75;;
18507;SDS011;9383;50.928;12.116;2023-04-21T09:40:37;6.57;;;4.63;;
18507;SDS011;9383;50.928;12.116;2023-04-21T09:43:06;3.90;;;3.45;;
18507;SDS011;9383;50.928;12.116;2023-04-21T09:45:34;5.82;;;3.85;;
18507;SDS011;9383;50.928;12.116;2023-04-21T09:48:02;9.00;;;3.70;;
18507;SDS011;9383;50.928;12.116;2023-04-21T09:50:31;4.72;;;3.20;;
18507;SDS011;9383;50.928;12.116;2023-04-21T09:52:58;7.22;;;3.17;;
18507;SDS011;9383;50.928;12.116;2023-04-21T09:55:28;5.60;;;4.15;;
18507;SDS011;9383;50.928;12.116;2023-04-21T09:57:59;4.57;;;4.18;;
18507;SDS011;9383;50.928;12.116;2023-04-21T10:00:34;5.28;;;3.80;;
18507;SDS011;9383;50.928;12.116;2023-04-21T10:03:21;3.97;;;3.63;;
18507;SDS011;9383;50.928;12.116;2023-04-21T10:05:52;4.28;;;3.88;;
18507;SDS011;9383;50.928;12.116;2023-04-21T10:08:19;4.78;;;3.80;;
18507;SDS011;9383;50.928;12.116;2023-04-21T10:10:47;4.28;;;3.92;;
18507;SDS011;9383;50.928;12.116;2023-04-21T10:13:14;4.10;;;3.70;;
18507;SDS011;9383;50.928;12.116;2023-04-21T10:15:43;4.55;;;3.70;;
18507;SDS011;9383;50.928;12.116;2023-04-21T10:18:17;4.13;;;3.72;;
18507;SDS011;9383;50.928;12.116;2023-04-21T10:20:55;3.80;;;3.42;;
18507;SDS011;9383;50.928;12.116;2023-04-21T10:23:40;3.67;;;3.30;;
18507;SDS011;9383;50.928;12.116;2023-04-21T10:26:09;3.50;;;3.30;;
18507;SDS011;9383;50.928;12.116;2023-04-21T10:31:16;5.05;;;3.30;;
18507;SDS011;9383;50.928;12.116;2023-04-21T10:34:33;3.83;;;3.30;;
18507;SDS011;9383;50.928;12.116;2023-04-21T10:36:34;5.45;;;3.80;;
18507;SDS011;9383;50.928;12.116;2023-04-21T10:47:40;6.82;;;3.30;;
18507;SDS011;9383;50.928;12.116;2023-04-21T10:50:14;5.28;;;3.90;;
18507;SDS011;9383;50.928;12.116;2023-04-21T10:52:44;4.05;;;3.75;;
18507;SDS011;9383;50.928;12.116;2023-04-21T10:55:12;3.83;;;3.50;;
18507;SDS011;9383;50.928;12.116;2023-04-21T10:57:41;5.68;;;3.67;;
18507;SDS011;9383;50.928;12.116;2023-04-21T11:00:10;3.88;;;3.25;;
18507;SDS011;9383;50.928;12.116;2023-04-21T11:02:41;4.18;;;3.83;;
18507;SDS011;9383;50.928;12.116;2023-04-21T11:05:09;5.40;;;3.50;;
18507;SDS011;9383;50.928;12.116;2023-04-21T11:07:38;3.95;;;2.78;;
18507;SDS011;9383;50.928;12.116;2023-04-21T11:10:05;4.57;;;3.40;;
18507;SDS011;9383;50.928;12.116;2023-04-21T11:12:34;3.63;;;3.33;;
18507;SDS011;9383;50.928;12.116;2023-04-21T11:15:03;5.03;;;3.40;;
18507;SDS011;9383;50.928;12.116;2023-04-21T11:17:35;3.67;;;3.22;;
18507;SDS011;9383;50.928;12.116;2023-04-21T11:20:04;4.25;;;3.10;;
18507;SDS011;9383;50.928;12.116;2023-04-21T11:22:31;3.08;;;2.78;;
18507;SDS011;9383;50.928;12.116;2023-04-21T11:24:58;5.75;;;3.53;;
18507;SDS011;9383;50.928;12.116;2023-04-21T11:27:26;3.40;;;3.10;;
18507;SDS011;9383;50.928;12.116;2023-04-21T11:29:55;3.78;;;3.42;;
18507;SDS011;9383;50.928;12.116;2023-04-21T11:32:23;3.47;;;3.17;;
18507;SDS011;9383;50.928;12.116;2023-04-21T11:34:50;3.45;;;3.15;;
18507;SDS011;9383;50.928;12.116;2023-04-21T11:37:22;3.28;;;2.95;;
18507;SDS011;9383;50.928;12.116;2023-04-21T11:39:58;3.08;;;2.88;;
18507;SDS011;9383;50.928;12.116;2023-04-21T11:42:26;3.63;;;3.22;;
18507;SDS011;9383;50.928;12.116;2023-04-21T11:44:53;3.78;;;3.03;;
18507;SDS011;9383;50.928;12.116;2023-04-21T11:49:56;5.20;;;2.80;;
18507;SDS011;9383;50.928;12.116;2023-04-21T11:52:31;3.13;;;2.67;;
18507;SDS011;9383;50.928;12.116;2023-04-21T11:55:05;3.63;;;2.70;;
18507;SDS011;9383;50.928;12.116;2023-04-21T11:57:35;9.07;;;2.80;;
18507;SDS011;9383;50.928;12.116;2023-04-21T12:00:04;2.95;;;2.50;;
18507;SDS011;9383;50.928;12.116;2023-04-21T12:02:36;4.57;;;3.10;;
18507;SDS011;9383;50.928;12.116;2023-04-21T12:05:07;4.13;;;3.22;;
18507;SDS011;9383;50.928;12.116;2023-04-21T12:07:39;4.45;;;3.60;;
18507;SDS011;9383;50.928;12.116;2023-04-21T12:10:12;4.70;;;3.50;;
18507;SDS011;9383;50.928;12.116;2023-04-21T12:12:42;5.18;;;3.55;;
18507;SDS011;9383;50.928;12.116;2023-04-21T12:15:11;3.42;;;2.95;;
18507;SDS011;9383;50.928;12.116;2023-04-21T12:17:47;3.65;;;3.35;;
18507;SDS011;9383;50.928;12.116;2023-04-21T12:20:15;4.35;;;3.10;;
18507;SDS011;9383;50.928;12.116;2023-04-21T12:22:47;2.60;;;2.40;;
18507;SDS011;9383;50.928;12.116;2023-04-21T12:25:15;3.75;;;2.63;;
18507;SDS011;9383;50.928;12.116;2023-04-21T12:27:52;2.72;;;2.40;;
18507;SDS011;9383;50.928;12.116;2023-04-21T12:30:23;2.85;;;2.65;;
18507;SDS011;9383;50.928;12.116;2023-04-21T12:32:49;3.13;;;2.80;;
18507;SDS011;9383;50.928;12.116;2023-04-21T12:35:16;2.78;;;2.35;;
18507;SDS011;9383;50.928;12.116;2023-04-21T12:37:43;5.28;;;2.80;;
18507;SDS011;9383;50.928;12.116;2023-04-21T12:40:10;2.72;;;2.47;;
18507;SDS011;9383;50.928;12.116;2023-04-21T12:42:38;2.38;;;2.17;;
18507;SDS011;9383;50.928;12.116;2023-04-21T12:45:04;2.80;;;2.22;;
18507;SDS011;9383;50.928;12.116;2023-04-21T12:47:32;2.67;;;2.45;;
18507;SDS011;9383;50.928;12.116;2023-04-21T12:49:59;3.20;;;2.10;;
18507;SDS011;9383;50.928;12.116;2023-04-21T12:52:26;2.88;;;2.67;;
18507;SDS011;9383;50.928;12.116;2023-04-21T12:54:53;2.58;;;2.15;;
18507;SDS011;9383;50.928;12.116;2023-04-21T12:57:20;2.53;;;2.33;;
18507;SDS011;9383;50.928;12.116;2023-04-21T12:59:47;2.78;;;2.58;;
18507;SDS011;9383;50.928;12.116;2023-04-21T13:02:14;3.03;;;2.83;;
18507;SDS011;9383;50.928;12.116;2023-04-21T13:04:40;4.68;;;2.88;;
18507;SDS011;9383;50.928;12.116;2023-04-21T13:07:08;3.05;;;2.75;;
18507;SDS011;9383;50.928;12.116;2023-04-21T13:09:35;2.95;;;2.60;;
18507;SDS011;9383;50.928;12.116;2023-04-21T13:12:02;2.90;;;2.70;;
18507;SDS011;9383;50.928;12.116;2023-04-21T13:14:30;3.50;;;3.17;;
18507;SDS011;9383;50.928;12.116;2023-04-21T13:16:57;3.88;;;3.00;;
18507;SDS011;9383;50.928;12.116;2023-04-21T13:19:24;3.05;;;2.70;;
18507;SDS011;9383;50.928;12.116;2023-04-21T13:21:51;3.33;;;2.50;;
18507;SDS011;9383;50.928;12.116;2023-04-21T13:24:18;2.70;;;2.40;;
18507;SDS011;9383;50.928;12.116;2023-04-21T13:26:45;3.63;;;2.42;;
18507;SDS011;9383;50.928;12.116;2023-04-21T13:29:14;2.40;;;2.30;;
18507;SDS011;9383;50.928;12.116;2023-04-21T13:31:41;2.58;;;2.38;;
18507;SDS011;9383;50.928;12.116;2023-04-21T13:34:08;2.63;;;2.33;;
18507;SDS011;9383;50.928;12.116;2023-04-21T13:36:36;2.80;;;2.60;;
18507;SDS011;9383;50.928;12.116;2023-04-21T13:39:02;3.13;;;2.83;;
18507;SDS011;9383;50.928;12.116;2023-04-21T13:41:29;2.78;;;2.55;;
18507;SDS011;9383;50.928;12.116;2023-04-21T13:43:56;3.90;;;2.90;;
18507;SDS011;9383;50.928;12.116;2023-04-21T13:46:22;7.32;;;2.63;;
18507;SDS011;9383;50.928;12.116;2023-04-21T13:48:50;2.97;;;2.72;;
18507;SDS011;9383;50.928;12.116;2023-04-21T13:51:17;6.72;;;2.58;;
18507;SDS011;9383;50.928;12.116;2023-04-21T13:53:45;2.95;;;2.40;;
18507;SDS011;9383;50.928;12.116;2023-04-21T13:56:13;2.78;;;2.50;;
18507;SDS011;9383;50.928;12.116;2023-04-21T13:58:40;2.75;;;2.55;;
18507;SDS011;9383;50.928;12.116;2023-04-21T14:01:07;2.33;;;2.13;;
18507;SDS011;9383;50.928;12.116;2023-04-21T14:03:34;2.80;;;2.40;;
18507;SDS011;9383;50.928;12.116;2023-04-21T14:06:02;3.30;;;2.40;;
18507;SDS011;9383;50.928;12.116;2023-04-21T14:08:30;2.45;;;2.25;;
18507;SDS011;9383;50.928;12.116;2023-04-21T14:10:57;2.38;;;2.17;;
18507;SDS011;9383;50.928;12.116;2023-04-21T14:13:25;2.50;;;2.30;;
18507;SDS011;9383;50.928;12.116;2023-04-21T14:15:54;2.67;;;2.20;;
18507;SDS011;9383;50.928;12.116;2023-04-21T14:18:21;3.72;;;2.50;;
18507;SDS011;9383;50.928;12.116;2023-04-21T14:20:48;2.55;;;2.40;;
18507;SDS011;9383;50.928;12.116;2023-04-21T14:23:15;2.83;;;2.63;;
18507;SDS011;9383;50.928;12.116;2023-04-21T14:25:42;2.40;;;2.20;;
18507;SDS011;9383;50.928;12.116;2023-04-21T14:28:10;3.10;;;2.88;;
18507;SDS011;9383;50.928;12.116;2023-04-21T14:30:36;3.22;;;2.40;;
18507;SDS011;9383;50.928;12.116;2023-04-21T14:33:03;4.07;;;2.42;;
18507;SDS011;9383;50.928;12.116;2023-04-21T14:35:30;2.20;;;2.10;;
18507;SDS011;9383;50.928;12.116;2023-04-21T14:37:58;3.20;;;2.28;;
18507;SDS011;9383;50.928;12.116;2023-04-21T14:40:26;4.05;;;2.67;;
18507;SDS011;9383;50.928;12.116;2023-04-21T14:42:54;3.92;;;2.53;;
18507;SDS011;9383;50.928;12.116;2023-04-21T14:45:20;3.15;;;2.30;;
18507;SDS011;9383;50.928;12.116;2023-04-21T14:47:47;2.97;;;2.42;;
18507;SDS011;9383;50.928;12.116;2023-04-21T14:50:13;3.10;;;1.90;;
18507;SDS011;9383;50.928;12.116;2023-04-21T14:52:41;2.95;;;2.65;;
18507;SDS011;9383;50.928;12.116;2023-04-21T14:55:08;4.88;;;2.80;;
18507;SDS011;9383;50.928;12.116;2023-04-21T14:57:37;2.58;;;2.30;;